createdAt,value
2022-12-27T00:00:21.046Z,92721.56
2022-12-27T00:02:53.520Z,92723.44
2022-12-27T00:05:25.823Z,92724.69
2022-12-27T00:07:58.922Z,92719.53
2022-12-27T00:10:33.069Z,92708.00
2022-12-27T00:13:05.588Z,92724.44
2022-12-27T00:15:37.898Z,92716.66
2022-12-27T00:18:10.260Z,92721.50
2022-12-27T00:20:42.930Z,92718.44
2022-12-27T00:23:15.955Z,92714.53
2022-12-27T00:25:48.238Z,92714.31
2022-12-27T00:28:20.633Z,92708.00
2022-12-27T00:30:54.502Z,92714.41
2022-12-27T00:33:28.715Z,92708.28
2022-12-27T00:36:03.450Z,92704.63
2022-12-27T00:38:36.494Z,92712.69
2022-12-27T00:41:09.080Z,92706.94
2022-12-27T00:43:41.470Z,92708.84
2022-12-27T00:46:14.248Z,92723.31
2022-12-27T00:48:46.925Z,92710.94
2022-12-27T00:51:21.536Z,92724.94
2022-12-27T00:53:55.174Z,92718.69
2022-12-27T00:56:29.945Z,92715.88
2022-12-27T00:59:04.101Z,92717.91
2022-12-27T01:01:36.855Z,92713.56
2022-12-27T01:04:12.804Z,92707.28
2022-12-27T01:06:45.116Z,92721.25
2022-12-27T01:09:18.119Z,92706.63
2022-12-27T01:11:50.435Z,92714.38
2022-12-27T01:14:22.846Z,92714.09
2022-12-27T01:16:55.157Z,92706.66
2022-12-27T01:19:27.592Z,92707.97
2022-12-27T01:22:00.050Z,92703.06
2022-12-27T01:24:34.151Z,92705.81
2022-12-27T01:27:06.455Z,92703.22
2022-12-27T01:29:38.893Z,92706.06
2022-12-27T01:32:11.198Z,92696.16
2022-12-27T01:34:43.555Z,92700.28
2022-12-27T01:37:15.823Z,92693.56
2022-12-27T01:39:48.850Z,92703.41
2022-12-27T01:42:39.382Z,92686.41
2022-12-27T01:45:14.956Z,92702.94
2022-12-27T01:47:53.118Z,92693.22
2022-12-27T01:50:31.727Z,92699.72
2022-12-27T01:53:09.083Z,92680.31
2022-12-27T01:55:50.107Z,92701.19
2022-12-27T01:58:26.526Z,92689.03
2022-12-27T02:00:59.312Z,92702.97
2022-12-27T02:03:34.658Z,92706.31
2022-12-27T02:06:09.425Z,92693.16
2022-12-27T02:08:52.651Z,92695.16
2022-12-27T02:11:48.007Z,92700.53
2022-12-27T02:14:27.663Z,92689.75
2022-12-27T02:17:04.848Z,92698.50
2022-12-27T02:19:51.988Z,92679.34
2022-12-27T02:23:23.486Z,92672.81
2022-12-27T02:26:27.618Z,92678.84
2022-12-27T02:29:11.118Z,92675.38
2022-12-27T02:31:51.322Z,92696.34
2022-12-27T02:34:25.932Z,92685.72
2022-12-27T02:37:03.656Z,92694.72
2022-12-27T02:39:39.709Z,92683.00
2022-12-27T02:42:31.472Z,92690.91
2022-12-27T02:45:47.029Z,92693.44
2022-12-27T02:48:37.708Z,92697.22
2022-12-27T02:51:49.279Z,92693.16
2022-12-27T02:54:39.417Z,92688.88
2022-12-27T02:57:31.367Z,92690.91
2022-12-27T03:00:27.319Z,92695.69
2022-12-27T03:03:30.539Z,92686.72
2022-12-27T03:06:42.038Z,92697.41
2022-12-27T03:10:20.539Z,92685.44
2022-12-27T03:13:17.538Z,92703.28
2022-12-27T03:16:08.065Z,92690.84
2022-12-27T03:19:08.150Z,92690.53
2022-12-27T03:22:17.607Z,92684.66
2022-12-27T03:25:08.781Z,92682.56
2022-12-27T03:27:43.141Z,92686.00
2022-12-27T03:30:36.048Z,92690.53
2022-12-27T03:33:15.221Z,92703.06
2022-12-27T03:36:07.172Z,92686.66
2022-12-27T03:38:47.379Z,92677.59
2022-12-27T03:41:44.718Z,92699.75
2022-12-27T03:44:26.225Z,92687.16
2022-12-27T03:46:59.847Z,92694.28
2022-12-27T03:49:39.525Z,92693.25
2022-12-27T03:52:17.008Z,92691.47
2022-12-27T03:54:51.706Z,92691.47
2022-12-27T03:57:26.247Z,92696.63
2022-12-27T03:59:59.815Z,92687.09
2022-12-27T04:02:32.295Z,92718.28
2022-12-27T04:05:06.319Z,92671.41
2022-12-27T04:07:38.705Z,92714.44
2022-12-27T04:10:30.669Z,92679.00
2022-12-27T04:13:21.009Z,92714.00
2022-12-27T04:16:11.530Z,92694.53
2022-12-27T04:19:02.221Z,92704.41
2022-12-27T04:21:53.740Z,92705.81
2022-12-27T04:24:44.325Z,92700.00
2022-12-27T04:27:34.777Z,92704.38
2022-12-27T04:30:26.724Z,92709.63
2022-12-27T04:33:17.285Z,92710.31
2022-12-27T04:35:50.164Z,92715.13
2022-12-27T04:38:23.168Z,92716.47
2022-12-27T04:41:13.689Z,92718.91
2022-12-27T04:44:04.299Z,92721.78
2022-12-27T04:46:54.796Z,92732.91
2022-12-27T04:49:45.937Z,92730.91
2022-12-27T04:52:39.121Z,92742.53
2022-12-27T04:55:17.880Z,92735.72
2022-12-27T04:57:51.177Z,92747.00
2022-12-27T05:00:58.491Z,92749.69
2022-12-27T05:03:33.232Z,92752.03
2022-12-27T05:06:06.721Z,92741.97
2022-12-27T05:08:57.324Z,92744.53
2022-12-27T05:11:48.714Z,92745.34
2022-12-27T05:14:21.014Z,92741.84
2022-12-27T05:16:53.341Z,92743.66
2022-12-27T05:19:25.719Z,92735.94
2022-12-27T05:22:16.095Z,92737.84
2022-12-27T05:25:06.985Z,92743.66
2022-12-27T05:27:40.052Z,92738.41
2022-12-27T05:30:12.603Z,92745.56
2022-12-27T05:32:44.925Z,92745.34
2022-12-27T05:35:17.253Z,92738.16
2022-12-27T05:37:54.727Z,92737.13
2022-12-27T05:40:27.697Z,92727.22
2022-12-27T05:43:01.426Z,92740.19
2022-12-27T05:45:33.911Z,92741.75
2022-12-27T05:48:06.292Z,92741.75
2022-12-27T05:50:38.665Z,92743.56
2022-12-27T05:53:17.792Z,92744.44
2022-12-27T05:55:54.315Z,92743.34
2022-12-27T05:58:28.175Z,92755.63
2022-12-27T06:01:01.336Z,92741.66
2022-12-27T06:03:33.701Z,92749.41
2022-12-27T06:06:08.105Z,92725.09
2022-12-27T06:08:41.040Z,92752.53
2022-12-27T06:11:15.926Z,92747.75
2022-12-27T06:13:51.298Z,92746.25
2022-12-27T06:16:23.788Z,92752.09
2022-12-27T06:18:56.158Z,92743.50
2022-12-27T06:21:28.580Z,92751.31
2022-12-27T06:24:00.949Z,92750.84
2022-12-27T06:26:33.397Z,92749.16
2022-12-27T06:29:06.574Z,92731.84
2022-12-27T06:31:39.240Z,92746.16
2022-12-27T06:34:11.591Z,92745.69
2022-12-27T06:36:49.188Z,92749.19
2022-12-27T06:39:21.731Z,92757.78
2022-12-27T06:41:55.558Z,92746.25
2022-12-27T06:44:28.601Z,92744.91
2022-12-27T06:47:01.517Z,92752.09
2022-12-27T06:49:33.911Z,92765.06
2022-12-27T06:52:06.265Z,92745.47
2022-12-27T06:54:38.627Z,92755.56
2022-12-27T06:57:10.993Z,92744.72
2022-12-27T06:59:46.937Z,92752.88
2022-12-27T07:02:22.014Z,92757.91
2022-12-27T07:04:54.399Z,92755.88
2022-12-27T07:07:26.801Z,92759.69
2022-12-27T07:09:59.168Z,92762.94
2022-12-27T07:12:36.505Z,92753.78
2022-12-27T07:15:10.334Z,92747.25
2022-12-27T07:17:42.739Z,92751.59
2022-12-27T07:20:15.110Z,92760.31
2022-12-27T07:22:47.463Z,92750.22
2022-12-27T07:25:19.789Z,92762.19
2022-12-27T07:27:52.173Z,92757.34
2022-12-27T07:30:25.323Z,92753.16
2022-12-27T07:32:57.683Z,92751.47
2022-12-27T07:35:30.002Z,92748.47
2022-12-27T07:38:02.406Z,92757.78
2022-12-27T07:40:36.302Z,92749.31
2022-12-27T07:43:08.664Z,92740.56
2022-12-27T07:45:41.659Z,92738.13
2022-12-27T07:48:14.101Z,92742.91
2022-12-27T07:50:54.321Z,92710.78
2022-12-27T07:53:26.706Z,92731.16
2022-12-27T07:55:59.188Z,92737.38
2022-12-27T07:58:35.964Z,92733.75
2022-12-27T08:01:10.441Z,92730.81
2022-12-27T08:03:43.219Z,92730.94
2022-12-27T08:06:21.840Z,92735.44
2022-12-27T08:08:55.839Z,92740.25
2022-12-27T08:11:29.432Z,92739.88
2022-12-27T08:14:01.820Z,92741.78
2022-12-27T08:16:34.864Z,92745.19
2022-12-27T08:19:08.711Z,92746.34
2022-12-27T08:21:41.169Z,92745.66
2022-12-27T08:24:13.602Z,92744.72
2022-12-27T08:26:45.925Z,92743.00
2022-12-27T08:29:18.383Z,92738.47
2022-12-27T08:31:51.444Z,92740.09
2022-12-27T08:34:23.828Z,92741.47
2022-12-27T08:36:56.694Z,92736.09
2022-12-27T08:39:29.694Z,92741.88
2022-12-27T08:42:02.050Z,92743.22
2022-12-27T08:44:35.012Z,92735.75
2022-12-27T08:47:07.952Z,92737.66
2022-12-27T08:49:40.339Z,92729.72
2022-12-27T08:52:12.681Z,92738.88
2022-12-27T08:54:45.090Z,92735.53
2022-12-27T08:57:17.406Z,92733.00
2022-12-27T08:59:49.910Z,92720.59
2022-12-27T09:02:22.933Z,92734.34
2022-12-27T09:04:55.429Z,92728.94
2022-12-27T09:07:27.739Z,92726.84
2022-12-27T09:10:00.116Z,92727.84
2022-12-27T09:12:33.057Z,92723.13
2022-12-27T09:15:06.705Z,92717.38
2022-12-27T09:17:40.458Z,92715.44
2022-12-27T09:20:12.863Z,92716.94
2022-12-27T09:22:45.215Z,92713.94
2022-12-27T09:25:17.767Z,92712.16
2022-12-27T09:27:50.159Z,92709.09
2022-12-27T09:30:22.598Z,92716.97
2022-12-27T09:32:57.578Z,92711.50
2022-12-27T09:35:30.225Z,92712.56
2022-12-27T09:38:04.067Z,92713.28
2022-12-27T09:40:37.495Z,92714.56
2022-12-27T09:43:22.333Z,92703.59
2022-12-27T09:45:59.262Z,92712.97
2022-12-27T09:48:35.707Z,92702.19
2022-12-27T09:51:15.268Z,92694.97
2022-12-27T09:53:57.240Z,92697.59
2022-12-27T09:56:54.496Z,92685.41
2022-12-27T09:59:31.069Z,92684.03
2022-12-27T10:02:08.549Z,92687.16
2022-12-27T10:05:18.073Z,92689.69
2022-12-27T10:07:45.024Z,92689.06
2022-12-27T10:10:26.351Z,92674.25
2022-12-27T10:13:21.326Z,92676.84
2022-12-27T10:16:09.122Z,92671.03
2022-12-27T10:18:54.308Z,92666.44
2022-12-27T10:21:29.721Z,92665.69
2022-12-27T10:24:12.672Z,92660.81
2022-12-27T10:26:44.971Z,92663.44
2022-12-27T10:29:21.492Z,92651.94
2022-12-27T10:31:53.915Z,92649.50
2022-12-27T10:34:26.456Z,92651.59
2022-12-27T10:36:59.475Z,92649.47
2022-12-27T10:39:35.655Z,92661.13
2022-12-27T10:42:15.146Z,92663.81
2022-12-27T10:44:47.631Z,92659.75
2022-12-27T10:47:25.529Z,92662.13
2022-12-27T10:50:08.302Z,92656.41
2022-12-27T10:52:43.523Z,92660.72
2022-12-27T10:55:33.294Z,92658.72
2022-12-27T10:58:36.807Z,92657.06
2022-12-27T11:01:16.174Z,92660.22
2022-12-27T11:03:48.886Z,92657.47
2022-12-27T11:06:24.622Z,92660.09
2022-12-27T11:08:57.581Z,92654.31
2022-12-27T11:11:30.521Z,92644.69
2022-12-27T11:14:12.464Z,92646.34
2022-12-27T11:16:45.648Z,92642.75
2022-12-27T11:19:23.420Z,92645.13
2022-12-27T11:21:56.694Z,92641.16
2022-12-27T11:24:30.345Z,92641.97
2022-12-27T11:27:03.627Z,92643.91
2022-12-27T11:29:37.191Z,92639.97
2022-12-27T11:32:09.883Z,92643.28
2022-12-27T11:34:48.308Z,92642.44
2022-12-27T11:37:24.291Z,92640.94
2022-12-27T11:40:13.284Z,92638.84
2022-12-27T11:42:51.014Z,92639.44
2022-12-27T11:45:28.864Z,92643.84
2022-12-27T11:48:07.201Z,92634.81
2022-12-27T11:51:03.764Z,92636.09
2022-12-27T11:54:05.297Z,92645.78
2022-12-27T11:56:40.828Z,92652.28
2022-12-27T11:59:34.486Z,92639.44
2022-12-27T12:02:28.451Z,92637.09
2022-12-27T12:05:27.257Z,92655.28
2022-12-27T12:08:26.902Z,92652.09
2022-12-27T12:11:10.185Z,92658.06
2022-12-27T12:14:00.303Z,92653.22
2022-12-27T12:17:11.007Z,92654.34
2022-12-27T12:20:04.150Z,92650.31
2022-12-27T12:22:50.496Z,92658.69
2022-12-27T12:25:49.988Z,92657.84
2022-12-27T12:28:59.108Z,92658.94
2022-12-27T12:32:00.566Z,92660.00
2022-12-27T12:35:05.584Z,92666.97
2022-12-27T12:37:57.055Z,92672.31
2022-12-27T12:40:51.481Z,92669.41
2022-12-27T12:43:44.842Z,92667.66
2022-12-27T12:46:27.153Z,92673.66
2022-12-27T12:49:18.205Z,92683.00
2022-12-27T12:52:03.563Z,92683.00
2022-12-27T12:54:54.082Z,92680.16
2022-12-27T12:57:41.547Z,92669.88
2022-12-27T13:00:36.895Z,92667.38
2022-12-27T13:03:51.689Z,92664.66
2022-12-27T13:06:45.093Z,92673.47
2022-12-27T13:09:29.177Z,92667.56
2022-12-27T13:12:08.747Z,92674.94
2022-12-27T13:14:55.483Z,92681.41
2022-12-27T13:17:38.572Z,92679.03
2022-12-27T13:20:32.114Z,92688.94
2022-12-27T13:23:17.433Z,92695.31
2022-12-27T13:25:58.687Z,92690.78
2022-12-27T13:28:42.297Z,92706.75
2022-12-27T13:31:29.426Z,92702.34
2022-12-27T13:34:20.006Z,92716.25
2022-12-27T13:37:09.928Z,92713.50
2022-12-27T13:39:57.323Z,92714.13
2022-12-27T13:42:54.929Z,92722.94
2022-12-27T13:45:44.090Z,92733.69
2022-12-27T13:48:39.939Z,92739.75
2022-12-27T13:51:36.469Z,92739.44
2022-12-27T13:54:32.149Z,92738.28
2022-12-27T13:57:25.520Z,92749.53
2022-12-27T14:00:09.608Z,92745.44
2022-12-27T14:03:21.618Z,92753.97
2022-12-27T14:06:17.866Z,92751.97
2022-12-27T14:09:29.119Z,92759.03
2022-12-27T14:12:26.193Z,92752.25
2022-12-27T14:15:02.846Z,92747.59
2022-12-27T14:17:43.126Z,92754.72
2022-12-27T14:20:30.704Z,92763.97
2022-12-27T14:23:21.607Z,92760.25
2022-12-27T14:26:40.253Z,92763.06
2022-12-27T14:30:02.358Z,92765.41
2022-12-27T14:33:18.099Z,92762.00
2022-12-27T14:36:11.185Z,92761.16
2022-12-27T14:39:19.103Z,92763.47
2022-12-27T14:42:17.131Z,92767.19
2022-12-27T14:45:33.379Z,92760.38
2022-12-27T14:48:39.007Z,92767.19
2022-12-27T14:54:58.321Z,92753.59
2022-12-27T14:57:38.826Z,92759.66
2022-12-27T15:00:15.344Z,92755.06
2022-12-27T15:03:13.692Z,92766.81
2022-12-27T15:05:57.756Z,92779.41
2022-12-27T15:08:45.538Z,92771.00
2022-12-27T15:11:35.168Z,92778.25
2022-12-27T15:14:22.131Z,92780.53
2022-12-27T15:17:08.353Z,92785.97
2022-12-27T15:20:09.741Z,92795.00
2022-12-27T15:22:55.974Z,92788.53
2022-12-27T15:25:43.795Z,92789.75
2022-12-27T15:28:22.980Z,92788.25
2022-12-27T15:31:03.407Z,92791.19
2022-12-27T15:33:46.350Z,92788.03
2022-12-27T15:36:35.176Z,92778.91
2022-12-27T15:39:47.972Z,92783.06
2022-12-27T15:42:52.657Z,92781.56
2022-12-27T15:45:39.940Z,92776.28
2022-12-27T15:48:57.843Z,92786.72
2022-12-27T15:51:36.135Z,92789.59
2022-12-27T15:54:36.998Z,92793.78
2022-12-27T15:57:31.249Z,92793.66
2022-12-27T16:00:15.719Z,92789.44
2022-12-27T16:02:53.636Z,92784.19
2022-12-27T16:05:47.422Z,92773.06
2022-12-27T16:08:32.942Z,92787.81
2022-12-27T16:11:08.435Z,92785.69
2022-12-27T16:13:47.478Z,92790.63
2022-12-27T16:16:52.567Z,92795.59
2022-12-27T16:20:05.031Z,92793.47
2022-12-27T16:22:39.813Z,92797.91
2022-12-27T16:25:31.823Z,92799.22
2022-12-27T16:28:07.737Z,92794.53
2022-12-27T16:30:44.571Z,92795.19
2022-12-27T16:33:30.802Z,92797.78
2022-12-27T16:36:20.645Z,92786.59
2022-12-27T16:39:31.012Z,92793.66
2022-12-27T16:42:06.553Z,92795.22
2022-12-27T16:44:57.139Z,92802.06
2022-12-27T16:48:04.831Z,92796.13
2022-12-27T16:50:52.223Z,92811.25
2022-12-27T16:53:54.196Z,92816.19
2022-12-27T16:56:28.276Z,92823.50
2022-12-27T16:59:01.440Z,92818.84
2022-12-27T17:01:57.569Z,92818.84
2022-12-27T17:04:53.886Z,92825.06
2022-12-27T17:07:49.620Z,92828.97
2022-12-27T17:10:44.530Z,92822.47
2022-12-27T17:13:20.813Z,92828.50
2022-12-27T17:16:00.435Z,92830.88
2022-12-27T17:18:36.588Z,92827.78
2022-12-27T17:21:14.073Z,92835.91
2022-12-27T17:23:48.319Z,92835.34
2022-12-27T17:26:53.120Z,92842.88
2022-12-27T17:29:52.984Z,92846.03
2022-12-27T17:32:40.495Z,92850.19
2022-12-27T17:35:25.734Z,92856.16
2022-12-27T17:38:17.023Z,92850.44
2022-12-27T17:41:00.891Z,92845.00
2022-12-27T17:44:00.931Z,92845.28
2022-12-27T17:46:43.435Z,92852.53
2022-12-27T17:49:17.059Z,92852.81
2022-12-27T17:52:04.028Z,92855.16
2022-12-27T17:54:56.806Z,92854.91
2022-12-27T17:57:47.384Z,92852.56
2022-12-27T18:00:23.243Z,92844.25
2022-12-27T18:02:58.814Z,92853.84
2022-12-27T18:05:36.186Z,92855.13
2022-12-27T18:08:19.984Z,92858.22
2022-12-27T18:10:52.413Z,92857.19
2022-12-27T18:13:27.217Z,92846.00
2022-12-27T18:16:03.182Z,92858.66
2022-12-27T18:18:35.627Z,92859.38
2022-12-27T18:21:21.308Z,92847.41
2022-12-27T18:23:54.696Z,92871.06
2022-12-27T18:26:37.840Z,92871.81
2022-12-27T18:29:11.328Z,92849.72
2022-12-27T18:31:48.890Z,92868.16
2022-12-27T18:34:26.792Z,92866.50
2022-12-27T18:37:02.810Z,92867.50
2022-12-27T18:39:38.399Z,92874.50
2022-12-27T18:42:17.408Z,92860.16
2022-12-27T18:44:54.645Z,92862.47
2022-12-27T18:47:28.168Z,92867.94
2022-12-27T18:50:03.172Z,92865.78
2022-12-27T18:52:40.343Z,92858.09
2022-12-27T18:55:17.717Z,92859.19
2022-12-27T18:58:03.078Z,92855.81
2022-12-27T19:00:47.809Z,92859.69
2022-12-27T19:03:20.823Z,92846.28
2022-12-27T19:06:00.867Z,92847.56
2022-12-27T19:08:37.502Z,92840.44
2022-12-27T19:11:19.635Z,92857.53
2022-12-27T19:13:53.933Z,92855.03
2022-12-27T19:16:28.543Z,92857.44
2022-12-27T19:19:07.036Z,92845.94
2022-12-27T19:21:39.749Z,92869.63
2022-12-27T19:24:32.018Z,92881.03
2022-12-27T19:27:21.845Z,92895.06
2022-12-27T19:29:53.910Z,92894.78
2022-12-27T19:32:32.318Z,92896.25
2022-12-27T19:35:05.312Z,92911.13
2022-12-27T19:37:37.729Z,92913.09
2022-12-27T19:40:14.933Z,92916.78
2022-12-27T19:42:47.295Z,92920.91
2022-12-27T19:45:19.973Z,92911.09
2022-12-27T19:47:54.515Z,92917.25
2022-12-27T19:50:26.861Z,92916.09
2022-12-27T19:52:59.473Z,92920.78
2022-12-27T19:55:35.496Z,92924.44
2022-12-27T19:58:17.840Z,92924.75
2022-12-27T20:00:50.174Z,92916.09
2022-12-27T20:03:22.686Z,92921.31
2022-12-27T20:06:13.026Z,92917.09
2022-12-27T20:08:49.915Z,92915.63
2022-12-27T20:11:23.694Z,92914.38
2022-12-27T20:13:56.066Z,92908.19
2022-12-27T20:16:28.393Z,92906.09
2022-12-27T20:19:01.820Z,92903.81
2022-12-27T20:21:34.151Z,92902.41
2022-12-27T20:24:09.364Z,92913.44
2022-12-27T20:26:42.981Z,92917.59
2022-12-27T20:29:15.542Z,92921.88
2022-12-27T20:31:49.349Z,92917.72
2022-12-27T20:34:21.847Z,92919.06
2022-12-27T20:36:54.740Z,92923.59
2022-12-27T20:39:27.153Z,92922.59
2022-12-27T20:42:01.025Z,92929.53
2022-12-27T20:44:33.527Z,92932.44
2022-12-27T20:47:05.892Z,92936.84
2022-12-27T20:49:38.809Z,92944.22
2022-12-27T20:52:11.116Z,92942.78
2022-12-27T20:54:43.518Z,92938.75
2022-12-27T20:57:16.507Z,92936.84
2022-12-27T20:59:48.861Z,92934.72
2022-12-27T21:02:21.353Z,92953.66
2022-12-27T21:04:53.916Z,92945.47
2022-12-27T21:07:26.451Z,92954.91
2022-12-27T21:09:58.838Z,92955.34
2022-12-27T21:12:32.046Z,92950.72
2022-12-27T21:15:07.432Z,92960.28
2022-12-27T21:17:39.728Z,92954.00
2022-12-27T21:20:12.749Z,92958.03
2022-12-27T21:22:45.079Z,92964.75
2022-12-27T21:25:17.588Z,92974.91
2022-12-27T21:27:50.536Z,92981.03
2022-12-27T21:30:22.938Z,92978.56
2022-12-27T21:32:55.231Z,92972.06
2022-12-27T21:35:27.560Z,92981.84
2022-12-27T21:37:59.886Z,92979.03
2022-12-27T21:40:32.652Z,92986.03
2022-12-27T21:43:05.639Z,92982.22
2022-12-27T21:45:38.005Z,92982.09
2022-12-27T21:48:10.362Z,92979.63
2022-12-27T21:50:42.985Z,92979.31
2022-12-27T21:53:15.964Z,92979.53
2022-12-27T21:55:48.367Z,92975.47
2022-12-27T21:58:22.447Z,92973.34
2022-12-27T22:01:03.637Z,92975.13
2022-12-27T22:03:40.547Z,92977.69
2022-12-27T22:06:14.474Z,92978.34
2022-12-27T22:08:48.669Z,92983.06
2022-12-27T22:11:22.653Z,92974.91
2022-12-27T22:13:56.066Z,92969.84
2022-12-27T22:16:30.499Z,92975.31
2022-12-27T22:19:05.328Z,92980.66
2022-12-27T22:21:39.155Z,92985.97
2022-12-27T22:24:12.567Z,92972.69
2022-12-27T22:26:44.989Z,92974.69
2022-12-27T22:29:18.011Z,92979.09
2022-12-27T22:31:50.405Z,92976.09
2022-12-27T22:34:22.725Z,92971.22
2022-12-27T22:36:55.332Z,92982.69
2022-12-27T22:39:28.349Z,92979.63
2022-12-27T22:42:00.839Z,92975.84
2022-12-27T22:44:34.148Z,92972.09
2022-12-27T22:47:25.795Z,92977.94
2022-12-27T22:49:58.826Z,92977.31
2022-12-27T22:52:31.510Z,92983.34
2022-12-27T22:55:07.189Z,92980.91
2022-12-27T22:57:39.941Z,92978.25
2022-12-27T23:00:14.393Z,92989.56
2022-12-27T23:02:46.907Z,92988.25
2022-12-27T23:05:19.266Z,92979.06
2022-12-27T23:08:04.124Z,92979.00
2022-12-27T23:10:39.123Z,92979.28
2022-12-27T23:13:11.469Z,92981.94
2022-12-27T23:15:44.450Z,92986.16
2022-12-27T23:18:16.824Z,92981.75
2022-12-27T23:21:19.232Z,92991.41
2022-12-27T23:23:41.479Z,92979.84
2022-12-27T23:26:20.408Z,92981.22
2022-12-27T23:28:52.971Z,92977.91
2022-12-27T23:31:26.445Z,92979.22
2022-12-27T23:33:58.870Z,92983.69
2022-12-27T23:36:31.667Z,92966.34
2022-12-27T23:39:04.367Z,92972.38
2022-12-27T23:41:36.696Z,92974.69
2022-12-27T23:44:09.079Z,92968.25
2022-12-27T23:46:42.134Z,92968.81
2022-12-27T23:49:15.320Z,92971.19
2022-12-27T23:51:47.608Z,92960.13
2022-12-27T23:54:20.154Z,92958.00
2022-12-27T23:56:52.476Z,92965.31
2022-12-27T23:59:24.845Z,92960.94
